Time;durP1;ratioP1;P1;durP2;ratioP2;P2;SDS_P1;SDS_P2;PMS_P1;PMS_P2;Temp;Humidity;BMP_temperature;BMP_pressure;BME280_temperature;BME280_humidity;BME280_pressure;Samples;Min_cycle;Max_cycle;Signal;HPM_P1;HPM_P2
2021/09/27 00:00:12;;;;;;;4.72;3.78;;;18.50;80.20;;;;;;5009663;28;20038;-76
2021/09/27 00:02:38;;;;;;;4.35;3.63;;;18.50;80.30;;;;;;5010136;28;20030;-76
2021/09/27 00:05:15;;;;;;;5.57;4.50;;;18.50;80.30;;;;;;5009126;28;20034;-76
2021/09/27 00:07:41;;;;;;;4.40;3.80;;;18.50;80.40;;;;;;5008586;28;20045;-77
2021/09/27 00:10:08;;;;;;;4.60;3.70;;;18.50;80.40;;;;;;5009932;28;20022;-75
2021/09/27 00:12:34;;;;;;;4.97;3.60;;;18.50;80.50;;;;;;5009215;28;20072;-76
2021/09/27 00:15:00;;;;;;;4.53;4.03;;;18.50;81.00;;;;;;5009161;28;20046;-75
2021/09/27 00:17:26;;;;;;;4.78;3.58;;;18.50;80.50;;;;;;5008800;28;20032;-76
2021/09/27 00:19:51;;;;;;;4.47;3.53;;;18.40;80.40;;;;;;5009022;28;20018;-76
2021/09/27 00:22:17;;;;;;;5.65;4.93;;;18.40;80.50;;;;;;5008727;28;20423;-76
2021/09/27 00:24:42;;;;;;;6.00;5.40;;;18.40;80.50;;;;;;5011973;28;20022;-77
2021/09/27 00:27:08;;;;;;;5.90;4.50;;;18.30;80.70;;;;;;5008536;28;20037;-76
2021/09/27 00:29:33;;;;;;;5.03;3.97;;;18.30;80.80;;;;;;5008230;28;20034;-76
2021/09/27 00:31:59;;;;;;;4.22;3.80;;;18.30;80.70;;;;;;5009444;28;20494;-76
2021/09/27 00:34:24;;;;;;;7.35;5.28;;;18.30;80.80;;;;;;5006677;28;20487;-76
2021/09/27 00:36:50;;;;;;;5.50;4.80;;;18.30;80.90;;;;;;5007778;28;20030;-76
2021/09/27 00:39:16;;;;;;;5.68;5.00;;;18.20;81.00;;;;;;5008471;28;20029;-76
2021/09/27 00:41:42;;;;;;;4.47;3.85;;;18.20;81.10;;;;;;5009729;28;20025;-75
2021/09/27 00:44:07;;;;;;;5.93;4.60;;;18.20;81.10;;;;;;5009241;28;20430;-77
2021/09/27 00:46:33;;;;;;;7.50;6.13;;;18.20;81.10;;;;;;5008443;28;20091;-77
2021/09/27 00:49:00;;;;;;;7.70;5.05;;;18.10;81.30;;;;;;5013297;28;20034;-76
2021/09/27 00:51:31;;;;;;;6.45;4.65;;;18.10;81.60;;;;;;5009031;28;20109;-76
2021/09/27 00:54:00;;;;;;;6.53;5.10;;;18.10;81.60;;;;;;5008163;28;20489;-76
2021/09/27 00:56:30;;;;;;;6.75;5.93;;;18.10;81.70;;;;;;5008600;28;20030;-76
2021/09/27 00:58:57;;;;;;;5.00;4.20;;;18.00;81.70;;;;;;5006945;28;20396;-75
2021/09/27 01:01:23;;;;;;;5.70;5.10;;;18.00;81.70;;;;;;5008436;28;20030;-75
2021/09/27 01:03:50;;;;;;;5.03;3.85;;;18.10;81.70;;;;;;5008720;28;20025;-76
2021/09/27 01:06:40;;;;;;;6.00;4.25;;;18.00;81.60;;;;;;5007724;28;20026;-75
2021/09/27 01:09:20;;;;;;;4.55;3.90;;;18.00;81.50;;;;;;5007946;28;20369;-75
2021/09/27 01:12:23;;;;;;;4.15;3.42;;;18.10;81.60;;;;;;5007408;28;20512;-75
2021/09/27 01:15:06;;;;;;;4.45;3.80;;;18.00;81.50;;;;;;5008768;28;20030;-76
2021/09/27 01:17:46;;;;;;;4.38;3.53;;;18.00;81.50;;;;;;4997727;28;20029;-77
2021/09/27 01:20:21;;;;;;;4.38;3.50;;;18.00;81.50;;;;;;5037272;28;20409;-75
2021/09/27 01:23:09;;;;;;;5.57;4.20;;;18.00;81.40;;;;;;5025280;28;20468;-74
2021/09/27 01:26:00;;;;;;;4.82;4.00;;;18.00;81.60;;;;;;5008189;28;20036;-75
2021/09/27 01:28:38;;;;;;;4.55;3.50;;;18.00;81.60;;;;;;4988001;28;20042;-75
2021/09/27 01:31:18;;;;;;;4.70;3.70;;;17.90;81.50;;;;;;5013982;28;20143;-75
2021/09/27 01:34:08;;;;;;;4.22;3.20;;;17.90;81.50;;;;;;5007643;28;20034;-76
2021/09/27 01:36:46;;;;;;;5.70;3.38;;;17.90;81.50;;;;;;5009504;28;20038;-75
2021/09/27 01:39:21;;;;;;;4.68;3.88;;;17.90;81.40;;;;;;5005407;28;20429;-75
2021/09/27 01:42:13;;;;;;;4.60;3.75;;;17.90;81.40;;;;;;5008115;28;20459;-76
2021/09/27 01:45:25;;;;;;;4.70;3.35;;;17.90;81.50;;;;;;5007721;28;20026;-75
2021/09/27 01:47:50;;;;;;;4.22;3.33;;;17.80;81.50;;;;;;5010437;28;20049;-75
2021/09/27 01:50:22;;;;;;;4.15;3.28;;;17.80;81.50;;;;;;5008903;28;20082;-76
2021/09/27 01:53:00;;;;;;;4.05;3.33;;;17.80;81.50;;;;;;5011491;28;20030;-75
2021/09/27 01:55:48;;;;;;;4.30;3.90;;;17.80;81.50;;;;;;5011620;28;20033;-75
2021/09/27 01:58:59;;;;;;;5.35;3.88;;;17.80;81.50;;;;;;5009890;28;20037;-76
2021/09/27 02:01:37;;;;;;;4.80;3.47;;;17.80;81.60;;;;;;4950074;29;20571;-75
2021/09/27 02:04:12;;;;;;;4.97;3.65;;;17.70;81.60;;;;;;5001009;28;20041;-76
2021/09/27 02:06:46;;;;;;;6.55;3.78;;;17.70;81.60;;;;;;5001940;28;20038;-76
2021/09/27 02:09:19;;;;;;;5.13;3.70;;;17.70;81.60;;;;;;5009535;28;20069;-75
2021/09/27 02:11:52;;;;;;;5.13;4.10;;;17.70;81.70;;;;;;5046229;28;20483;-75
2021/09/27 02:14:47;;;;;;;4.38;3.97;;;17.70;81.70;;;;;;5011096;28;20026;-76
2021/09/27 02:17:34;;;;;;;4.40;3.97;;;17.70;81.70;;;;;;5011004;28;20026;-76
2021/09/27 02:20:12;;;;;;;5.75;4.40;;;17.60;81.70;;;;;;5008008;28;20052;-76
2021/09/27 02:22:44;;;;;;;5.45;4.05;;;17.60;81.60;;;;;;5011021;28;20484;-76
2021/09/27 02:25:31;;;;;;;5.93;4.03;;;17.60;81.70;;;;;;5011859;28;20083;-76
2021/09/27 02:28:08;;;;;;;5.90;3.90;;;17.60;81.80;;;;;;5010070;28;20026;-75
2021/09/27 02:30:45;;;;;;;4.68;3.53;;;17.60;81.80;;;;;;5005404;28;20053;-77
2021/09/27 02:33:24;;;;;;;6.68;4.63;;;17.60;81.90;;;;;;5010738;28;20040;-76
2021/09/27 02:35:57;;;;;;;8.30;4.95;;;17.50;82.00;;;;;;5011577;28;20018;-76
2021/09/27 02:38:41;;;;;;;4.90;3.90;;;17.50;82.10;;;;;;5007774;28;20105;-76
2021/09/27 02:41:54;;;;;;;4.50;4.03;;;17.50;82.20;;;;;;5007643;28;20022;-77
2021/09/27 02:44:21;;;;;;;5.10;4.30;;;17.50;82.20;;;;;;5005115;28;20492;-76
2021/09/27 02:46:54;;;;;;;4.85;3.90;;;17.50;82.40;;;;;;5009918;28;20097;-75
2021/09/27 02:49:29;;;;;;;4.57;3.92;;;17.50;82.40;;;;;;5010817;28;20025;-75
2021/09/27 02:51:58;;;;;;;5.45;3.70;;;17.50;82.40;;;;;;5008516;28;20033;-75
2021/09/27 02:54:41;;;;;;;6.60;4.50;;;17.50;82.40;;;;;;5007738;28;20029;-76
2021/09/27 02:57:34;;;;;;;5.35;4.55;;;17.50;82.50;;;;;;5007998;28;20083;-75
2021/09/27 03:00:32;;;;;;;5.10;4.22;;;17.40;82.50;;;;;;5010080;28;20099;-77
2021/09/27 03:03:16;;;;;;;6.13;4.53;;;17.40;82.50;;;;;;4976411;28;20387;-76
2021/09/27 03:06:04;;;;;;;5.75;4.63;;;17.40;82.60;;;;;;5009227;28;20033;-76
2021/09/27 03:08:56;;;;;;;6.15;4.35;;;17.40;82.70;;;;;;5010097;28;20034;-75
2021/09/27 03:11:52;;;;;;;4.90;4.13;;;17.40;82.70;;;;;;5009993;28;20030;-74
2021/09/27 03:14:55;;;;;;;6.07;5.05;;;17.40;82.70;;;;;;5009222;28;20022;-75
2021/09/27 03:17:36;;;;;;;7.97;4.80;;;17.30;82.80;;;;;;5000063;28;20033;-75
2021/09/27 03:20:21;;;;;;;5.88;4.47;;;17.30;82.90;;;;;;5001429;28;20489;-74
2021/09/27 03:23:13;;;;;;;4.80;3.78;;;17.30;83.00;;;;;;5022250;28;20018;-75
2021/09/27 03:25:54;;;;;;;4.68;4.10;;;17.30;82.90;;;;;;5009524;28;20037;-76
2021/09/27 03:28:38;;;;;;;5.65;4.50;;;17.30;82.90;;;;;;5009275;28;20090;-76
2021/09/27 03:31:30;;;;;;;7.90;5.10;;;17.30;82.90;;;;;;5008650;28;20445;-75
2021/09/27 03:34:10;;;;;;;6.53;4.80;;;17.30;83.10;;;;;;5010727;28;20034;-77
2021/09/27 03:36:45;;;;;;;7.70;4.63;;;17.20;83.10;;;;;;5010052;28;20037;-75
2021/09/27 03:39:41;;;;;;;6.30;4.35;;;17.20;83.20;;;;;;5010004;28;20075;-78
2021/09/27 03:42:34;;;;;;;5.95;4.43;;;17.20;83.20;;;;;;5004767;28;20051;-76
2021/09/27 03:45:18;;;;;;;;;;;17.30;83.20;;;;;;5009892;28;20034;-77
2021/09/27 03:48:12;;;;;;;4.68;3.38;;;17.30;83.00;;;;;;5005957;28;20372;-77
2021/09/27 03:50:47;;;;;;;5.03;4.47;;;17.20;83.10;;;;;;5000117;28;20071;-77
2021/09/27 03:53:39;;;;;;;6.82;5.63;;;17.20;83.20;;;;;;5008747;28;20041;-77
2021/09/27 03:56:16;;;;;;;5.93;4.60;;;17.20;83.30;;;;;;5009809;28;20034;-76
2021/09/27 03:58:49;;;;;;;8.07;5.90;;;17.20;83.30;;;;;;5006706;28;20026;-76
2021/09/27 04:01:26;;;;;;;9.23;6.72;;;17.10;83.40;;;;;;5009241;28;20029;-76
2021/09/27 04:04:37;;;;;;;7.32;5.32;;;17.10;83.70;;;;;;5010203;28;20066;-76
2021/09/27 04:07:29;;;;;;;6.15;4.95;;;17.10;83.70;;;;;;5006532;28;20041;-75
2021/09/27 04:10:17;;;;;;;8.38;4.95;;;17.10;83.70;;;;;;5010034;28;20380;-75
2021/09/27 04:13:11;;;;;;;6.82;4.88;;;17.10;83.70;;;;;;5009450;28;20086;-75
2021/09/27 04:15:54;;;;;;;7.20;5.05;;;17.10;83.60;;;;;;5009292;28;20426;-75
2021/09/27 04:18:32;;;;;;;8.63;5.60;;;17.20;83.60;;;;;;5009324;28;20472;-75
2021/09/27 04:21:09;;;;;;;8.57;6.93;;;17.20;83.60;;;;;;5009391;28;20034;-76
2021/09/27 04:23:43;;;;;;;7.55;6.10;;;17.20;83.70;;;;;;5009538;28;20025;-76
2021/09/27 04:26:18;;;;;;;6.60;5.72;;;17.20;83.90;;;;;;5007900;28;20399;-76
2021/09/27 04:29:05;;;;;;;6.25;5.50;;;17.20;83.80;;;;;;5009065;28;20255;-76
2021/09/27 04:31:33;;;;;;;6.90;5.70;;;17.30;83.90;;;;;;5005447;28;20082;-76
2021/09/27 04:34:32;;;;;;;8.95;7.18;;;17.30;83.90;;;;;;5004395;28;20025;-76
2021/09/27 04:37:00;;;;;;;8.15;6.20;;;17.30;84.00;;;;;;5007831;28;20456;-76
2021/09/27 04:39:32;;;;;;;5.85;4.63;;;17.30;84.00;;;;;;5008571;28;20475;-76
2021/09/27 04:42:17;;;;;;;7.72;5.60;;;17.30;84.00;;;;;;5012377;28;20038;-76
2021/09/27 04:44:57;;;;;;;6.95;5.45;;;17.30;84.20;;;;;;5008218;28;20041;-76
2021/09/27 04:47:39;;;;;;;8.18;5.50;;;17.30;84.10;;;;;;5019742;28;20425;-75
2021/09/27 04:50:26;;;;;;;5.63;4.70;;;17.30;84.20;;;;;;5001712;28;20438;-75
2021/09/27 04:52:56;;;;;;;6.53;4.80;;;17.30;84.10;;;;;;5000002;28;20022;-76
2021/09/27 04:56:00;;;;;;;6.88;4.47;;;17.30;84.70;;;;;;5006373;28;20037;-75
2021/09/27 04:58:50;;;;;;;9.93;6.53;;;17.40;84.00;;;;;;5007122;28;20029;-75
2021/09/27 05:01:37;;;;;;;8.10;5.70;;;17.30;84.00;;;;;;5000802;28;20083;-76
2021/09/27 05:04:40;;;;;;;6.60;5.72;;;17.30;84.20;;;;;;5004798;28;20034;-75
2021/09/27 05:07:15;;;;;;;8.00;5.03;;;17.20;84.30;;;;;;5006804;28;20069;-75
2021/09/27 05:10:00;;;;;;;7.15;4.65;;;17.20;84.30;;;;;;5007467;28;20037;-76
2021/09/27 05:12:31;;;;;;;6.50;4.90;;;17.30;84.20;;;;;;5007561;28;20029;-75
2021/09/27 05:15:20;;;;;;;5.50;4.55;;;17.30;84.20;;;;;;5004462;28;20423;-76
2021/09/27 05:18:04;;;;;;;8.05;4.93;;;17.30;84.00;;;;;;5006011;28;20484;-76
2021/09/27 05:20:57;;;;;;;7.60;6.25;;;17.30;84.10;;;;;;4997770;28;20033;-75
2021/09/27 05:23:59;;;;;;;8.77;6.53;;;17.30;84.30;;;;;;5007580;28;20495;-75
2021/09/27 05:26:34;;;;;;;7.03;5.43;;;17.20;84.50;;;;;;5010924;28;20369;-75
2021/09/27 05:29:34;;;;;;;5.88;4.60;;;17.10;84.70;;;;;;4999874;28;20373;-78
2021/09/27 05:32:37;;;;;;;8.32;5.85;;;17.20;84.70;;;;;;5005651;28;20037;-76
2021/09/27 05:35:12;;;;;;;8.57;5.90;;;17.20;84.60;;;;;;4938038;29;20039;-77
2021/09/27 05:38:09;;;;;;;7.03;5.40;;;17.10;84.50;;;;;;4998012;28;20045;-75
2021/09/27 05:41:01;;;;;;;8.75;6.00;;;17.20;84.50;;;;;;5006998;28;20026;-76
2021/09/27 05:43:33;;;;;;;4.63;3.53;;;17.20;84.60;;;;;;5061186;28;20038;-76
2021/09/27 05:46:11;;;;;;;7.15;5.65;;;17.20;84.40;;;;;;5023308;28;20030;-78
2021/09/27 05:48:53;;;;;;;5.90;4.22;;;17.20;84.50;;;;;;5033356;28;20044;-77
2021/09/27 05:51:32;;;;;;;6.03;4.97;;;17.30;84.50;;;;;;5007947;28;20030;-76
2021/09/27 05:54:11;;;;;;;6.75;5.10;;;17.30;84.50;;;;;;5004773;28;20030;-76
2021/09/27 05:57:01;;;;;;;7.00;5.63;;;17.30;84.40;;;;;;5017907;28;20026;-82
2021/09/27 05:59:49;;;;;;;8.75;6.88;;;17.30;84.30;;;;;;5006284;28;20094;-78
2021/09/27 06:02:39;;;;;;;8.57;6.30;;;17.20;84.50;;;;;;4999379;28;20033;-78
2021/09/27 06:05:40;;;;;;;8.15;6.43;;;17.20;85.30;;;;;;5004145;28;20484;-78
2021/09/27 06:08:22;;;;;;;8.88;7.28;;;17.20;84.80;;;;;;5002839;28;20039;-77
2021/09/27 06:10:59;;;;;;;10.05;7.47;;;17.10;84.80;;;;;;5018355;28;20030;-78
2021/09/27 06:13:31;;;;;;;6.50;5.07;;;17.10;85.00;;;;;;5001104;28;20380;-78
2021/09/27 06:16:16;;;;;;;10.30;6.95;;;17.20;85.00;;;;;;5002202;28;20046;-76
2021/09/27 06:19:26;;;;;;;6.55;4.60;;;17.10;85.00;;;;;;5001402;28;20038;-78
2021/09/27 06:22:19;;;;;;;7.75;5.93;;;17.20;85.00;;;;;;4977929;28;20038;-78
2021/09/27 06:25:06;;;;;;;8.13;5.60;;;17.10;85.10;;;;;;5001431;28;20109;-78
2021/09/27 06:27:58;;;;;;;7.32;5.40;;;17.10;85.40;;;;;;5000701;28;20045;-78
2021/09/27 06:30:26;;;;;;;8.35;6.55;;;17.10;85.50;;;;;;5002572;28;20026;-77
2021/09/27 06:33:03;;;;;;;9.45;6.28;;;17.00;85.70;;;;;;5022327;28;20062;-78
2021/09/27 06:35:32;;;;;;;10.23;7.03;;;17.00;85.70;;;;;;5008908;28;20476;-77
2021/09/27 06:38:04;;;;;;;8.23;5.95;;;17.00;85.80;;;;;;5004748;28;20463;-78
2021/09/27 06:40:31;;;;;;;8.38;6.22;;;17.00;85.90;;;;;;5000670;28;20044;-77
2021/09/27 06:42:56;;;;;;;11.90;8.70;;;17.10;85.90;;;;;;5006323;28;20030;-78
2021/09/27 06:45:22;;;;;;;10.27;7.55;;;17.00;86.10;;;;;;5008200;28;20065;-78
2021/09/27 06:47:48;;;;;;;8.25;6.28;;;17.10;86.10;;;;;;5005684;28;20037;-77
2021/09/27 06:50:14;;;;;;;12.30;8.00;;;17.10;86.20;;;;;;5004922;28;20080;-79
2021/09/27 06:52:45;;;;;;;9.07;6.78;;;17.00;86.20;;;;;;5003471;28;20038;-77
2021/09/27 06:55:13;;;;;;;10.13;8.10;;;17.10;86.40;;;;;;5005885;28;20040;-81
2021/09/27 06:57:38;;;;;;;14.30;9.48;;;17.10;86.50;;;;;;5007301;28;20026;-77
2021/09/27 07:00:06;;;;;;;11.27;8.48;;;17.10;87.40;;;;;;5008054;28;20030;-78
2021/09/27 07:02:32;;;;;;;7.95;7.13;;;17.10;86.80;;;;;;5033298;28;20020;-78
2021/09/27 07:04:57;;;;;;;9.07;7.43;;;17.20;86.80;;;;;;5020584;28;20025;-76
2021/09/27 07:07:23;;;;;;;7.88;5.80;;;17.20;86.70;;;;;;5009775;28;20400;-77
2021/09/27 07:09:48;;;;;;;9.52;7.53;;;17.30;86.60;;;;;;5008811;28;20067;-77
2021/09/27 07:12:14;;;;;;;9.90;7.07;;;17.30;86.50;;;;;;5009846;28;20075;-78
2021/09/27 07:14:40;;;;;;;8.25;7.00;;;17.30;86.30;;;;;;5010093;28;20532;-78
2021/09/27 07:17:06;;;;;;;9.60;7.40;;;17.40;86.30;;;;;;5009024;28;20413;-77
2021/09/27 07:19:32;;;;;;;10.63;8.00;;;17.40;86.40;;;;;;5009511;28;20083;-78
2021/09/27 07:21:57;;;;;;;12.77;9.20;;;17.40;86.50;;;;;;5007804;28;20018;-78
2021/09/27 07:24:24;;;;;;;10.43;9.05;;;17.40;86.70;;;;;;5009995;28;20022;-78
2021/09/27 07:26:50;;;;;;;8.35;6.28;;;17.40;86.80;;;;;;5009542;28;20026;-79
2021/09/27 07:29:16;;;;;;;8.80;7.20;;;17.60;86.70;;;;;;5009082;28;20075;-77
2021/09/27 07:31:42;;;;;;;8.65;7.68;;;17.70;86.50;;;;;;5004428;28;20026;-76
2021/09/27 07:34:09;;;;;;;13.52;10.35;;;17.80;86.20;;;;;;4998453;28;20030;-77
2021/09/27 07:36:36;;;;;;;8.05;6.40;;;17.90;86.10;;;;;;4992869;28;20030;-77
2021/09/27 07:39:05;;;;;;;7.25;6.18;;;18.10;85.80;;;;;;5003123;28;20054;-76
2021/09/27 07:41:31;;;;;;;12.20;9.20;;;18.10;85.30;;;;;;5004938;28;20388;-76
2021/09/27 07:43:58;;;;;;;9.02;7.15;;;18.20;85.20;;;;;;5010135;28;20037;-78
2021/09/27 07:46:24;;;;;;;9.65;7.10;;;18.30;85.00;;;;;;5060635;28;20072;-78
2021/09/27 07:48:50;;;;;;;9.18;7.45;;;18.40;84.80;;;;;;5021576;28;20060;-77
2021/09/27 07:51:17;;;;;;;9.15;6.00;;;18.40;84.70;;;;;;5009275;28;20487;-80
2021/09/27 07:53:45;;;;;;;12.32;8.80;;;18.40;84.60;;;;;;5010389;28;20022;-79
2021/09/27 07:56:11;;;;;;;7.25;5.97;;;18.50;84.40;;;;;;5008626;28;20037;-78
2021/09/27 07:58:37;;;;;;;11.45;8.15;;;18.60;84.20;;;;;;5010704;28;20029;-77
2021/09/27 08:01:03;;;;;;;11.98;7.97;;;18.70;84.00;;;;;;5007388;28;20079;-78
2021/09/27 08:03:28;;;;;;;12.18;10.65;;;18.70;83.80;;;;;;5002505;28;20034;-77
2021/09/27 08:05:57;;;;;;;11.00;9.07;;;18.70;83.60;;;;;;5018111;28;20034;-76
2021/09/27 08:08:22;;;;;;;8.80;7.20;;;18.70;83.60;;;;;;5015659;28;20395;-77
2021/09/27 08:10:48;;;;;;;8.93;6.53;;;18.70;83.60;;;;;;5006555;28;20026;-75
2021/09/27 08:13:15;;;;;;;6.90;5.32;;;18.80;83.60;;;;;;5013652;28;20040;-77
2021/09/27 08:15:45;;;;;;;7.38;6.25;;;18.80;83.40;;;;;;5008207;28;20112;-78
2021/09/27 08:18:12;;;;;;;6.15;5.45;;;18.90;83.50;;;;;;5002463;28;20022;-79
2021/09/27 08:20:48;;;;;;;8.52;6.78;;;19.00;83.20;;;;;;5012933;28;20016;-77
2021/09/27 08:23:14;;;;;;;9.98;7.10;;;19.00;83.10;;;;;;5006134;28;20079;-77
2021/09/27 08:25:40;;;;;;;8.50;6.88;;;19.10;83.00;;;;;;5019506;28;20035;-77
2021/09/27 08:28:08;;;;;;;10.05;8.15;;;19.10;82.90;;;;;;5012238;28;20438;-76
2021/09/27 08:30:37;;;;;;;10.27;8.50;;;19.20;82.80;;;;;;5001779;28;20034;-78
2021/09/27 08:33:04;;;;;;;8.95;7.60;;;19.20;82.70;;;;;;5027599;28;20036;-77
2021/09/27 08:35:31;;;;;;;8.15;6.82;;;19.30;82.50;;;;;;5005150;28;20110;-78
2021/09/27 08:37:58;;;;;;;14.50;10.88;;;19.40;82.20;;;;;;5007362;28;20026;-79
2021/09/27 08:40:55;;;;;;;9.93;8.10;;;19.40;81.80;;;;;;5006375;28;20046;-77
2021/09/27 08:43:49;;;;;;;11.05;7.82;;;19.50;81.80;;;;;;5018471;28;20162;-77
2021/09/27 08:46:26;;;;;;;7.47;6.47;;;19.60;81.50;;;;;;5008093;28;20149;-76
2021/09/27 08:48:56;;;;;;;6.90;6.13;;;19.70;81.20;;;;;;5003539;28;20055;-77
2021/09/27 08:51:22;;;;;;;7.03;5.97;;;19.80;81.00;;;;;;5005446;28;20353;-77
2021/09/27 08:53:52;;;;;;;11.68;9.90;;;19.90;80.90;;;;;;5024783;28;20023;-78
2021/09/27 08:56:41;;;;;;;10.45;8.10;;;19.90;81.00;;;;;;5001855;28;20183;-77
2021/09/27 08:59:31;;;;;;;10.25;7.82;;;19.90;80.30;;;;;;5005295;28;20034;-77
2021/09/27 09:02:22;;;;;;;8.32;6.22;;;20.00;80.10;;;;;;5002758;28;20026;-78
2021/09/27 09:05:09;;;;;;;8.70;7.75;;;20.10;80.00;;;;;;5034707;28;20071;-77
2021/09/27 09:07:44;;;;;;;7.88;6.72;;;20.20;79.60;;;;;;5015950;28;20077;-76
2021/09/27 09:10:12;;;;;;;8.20;6.63;;;20.20;79.40;;;;;;5004799;28;20439;-79
2021/09/27 09:12:57;;;;;;;9.85;7.57;;;20.20;79.40;;;;;;5012573;28;20861;-77
2021/09/27 09:15:26;;;;;;;9.27;7.22;;;20.10;79.20;;;;;;5028924;28;20030;-77
2021/09/27 09:18:03;;;;;;;8.18;6.32;;;20.00;79.40;;;;;;5000977;28;20032;-80
2021/09/27 09:21:00;;;;;;;9.15;7.32;;;20.00;79.50;;;;;;5031370;28;20024;-79
2021/09/27 09:23:35;;;;;;;8.40;6.75;;;19.90;79.20;;;;;;5022209;28;20070;-78
2021/09/27 09:26:04;;;;;;;10.60;8.27;;;19.90;79.50;;;;;;5004265;28;20030;-78
2021/09/27 09:28:30;;;;;;;9.75;7.20;;;19.90;79.40;;;;;;5011388;28;20449;-78
2021/09/27 09:31:11;;;;;;;7.60;5.03;;;19.90;79.50;;;;;;5025239;28;20033;-81
2021/09/27 09:33:49;;;;;;;9.07;7.15;;;20.00;79.50;;;;;;5013703;28;20022;-77
2021/09/27 09:36:23;;;;;;;9.00;5.70;;;20.10;79.10;;;;;;5027807;28;20137;-78
2021/09/27 09:38:50;;;;;;;7.05;5.45;;;20.10;79.10;;;;;;5026895;28;20071;-78
2021/09/27 09:41:17;;;;;;;7.00;6.00;;;20.10;79.10;;;;;;5024634;28;20052;-79
2021/09/27 09:43:47;;;;;;;7.15;5.80;;;20.10;79.10;;;;;;5028485;28;20026;-78
2021/09/27 09:46:34;;;;;;;6.28;5.03;;;20.20;79.20;;;;;;5040725;28;20029;-79
2021/09/27 09:49:13;;;;;;;6.80;5.40;;;20.30;79.00;;;;;;5011882;28;20061;-78
2021/09/27 09:51:42;;;;;;;9.98;7.65;;;20.40;78.80;;;;;;5014134;28;20029;-77
2021/09/27 09:54:19;;;;;;;9.32;7.60;;;20.50;78.30;;;;;;5011577;28;20030;-78
2021/09/27 09:57:00;;;;;;;8.45;7.10;;;20.60;78.10;;;;;;5005526;28;20026;-76
2021/09/27 09:59:31;;;;;;;8.85;7.57;;;20.60;77.80;;;;;;5012690;28;20182;-76
2021/09/27 10:01:58;;;;;;;8.27;6.97;;;20.70;77.60;;;;;;5011807;28;20023;-76
2021/09/27 10:04:41;;;;;;;5.88;4.70;;;20.70;77.50;;;;;;5011227;28;20056;-75
2021/09/27 10:07:12;;;;;;;6.45;5.18;;;20.80;77.60;;;;;;5012030;28;20045;-76
2021/09/27 10:09:55;;;;;;;8.77;6.00;;;20.80;77.40;;;;;;5037282;28;20022;-78
2021/09/27 10:12:42;;;;;;;9.45;6.75;;;20.80;77.00;;;;;;5033792;28;20033;-78
2021/09/27 10:15:15;;;;;;;7.32;6.35;;;20.70;76.80;;;;;;5013819;28;20032;-79
2021/09/27 10:17:41;;;;;;;5.22;4.50;;;20.70;77.00;;;;;;5023349;28;20364;-78
2021/09/27 10:20:18;;;;;;;10.18;7.65;;;20.80;77.00;;;;;;5016626;28;20109;-78
2021/09/27 10:22:55;;;;;;;7.75;5.80;;;20.90;76.60;;;;;;5009226;28;20026;-78
2021/09/27 10:25:34;;;;;;;8.52;6.90;;;20.80;76.50;;;;;;5009630;28;20106;-77
2021/09/27 10:28:03;;;;;;;6.72;5.32;;;20.80;76.40;;;;;;5009099;28;20057;-78
2021/09/27 10:30:54;;;;;;;5.93;4.78;;;20.80;76.60;;;;;;5005938;28;20057;-76
2021/09/27 10:33:29;;;;;;;7.45;5.20;;;20.80;76.60;;;;;;5007297;28;20033;-76
2021/09/27 10:35:56;;;;;;;6.50;4.65;;;20.70;76.70;;;;;;5007631;28;20033;-76
2021/09/27 10:38:32;;;;;;;6.63;5.18;;;20.70;76.60;;;;;;5008544;28;20105;-77
2021/09/27 10:41:07;;;;;;;7.82;5.07;;;20.70;76.50;;;;;;5009753;28;20030;-75
2021/09/27 10:43:33;;;;;;;4.10;3.22;;;20.70;76.40;;;;;;5007170;28;20081;-75
2021/09/27 10:46:02;;;;;;;6.90;4.05;;;20.70;76.50;;;;;;5007791;28;20034;-75
2021/09/27 10:48:29;;;;;;;4.78;3.38;;;20.60;76.50;;;;;;5006683;28;20474;-76
2021/09/27 10:51:01;;;;;;;4.95;3.63;;;20.60;76.60;;;;;;5008640;28;20033;-73
2021/09/27 10:53:55;;;;;;;6.35;4.90;;;20.70;76.70;;;;;;5010032;28;20068;-75
2021/09/27 10:56:47;;;;;;;6.65;4.38;;;20.60;76.40;;;;;;5019412;28;20098;-77
2021/09/27 10:59:27;;;;;;;4.03;3.50;;;20.60;76.20;;;;;;5011571;28;20040;-76
2021/09/27 11:01:59;;;;;;;5.28;3.50;;;20.60;76.40;;;;;;5015852;28;20031;-76
2021/09/27 11:04:41;;;;;;;10.02;4.35;;;20.60;76.40;;;;;;5012905;28;20026;-76
2021/09/27 11:07:48;;;;;;;5.30;3.70;;;20.60;76.30;;;;;;5007928;28;20038;-77
2021/09/27 11:10:22;;;;;;;4.03;3.55;;;20.70;76.40;;;;;;5010826;28;20554;-77
2021/09/27 11:12:51;;;;;;;4.40;2.92;;;20.70;76.30;;;;;;5009998;28;20089;-76
2021/09/27 11:15:30;;;;;;;3.85;2.75;;;20.80;76.20;;;;;;5007740;28;20075;-77
2021/09/27 11:18:07;;;;;;;5.15;3.28;;;20.90;76.20;;;;;;5029581;28;20472;-80
2021/09/27 11:20:53;;;;;;;5.82;3.50;;;21.00;76.60;;;;;;5033019;28;20030;-79
2021/09/27 11:23:25;;;;;;;5.50;3.50;;;21.00;75.70;;;;;;5007647;28;20072;-78
2021/09/27 11:26:06;;;;;;;4.28;3.15;;;21.00;75.30;;;;;;5009087;28;20034;-78
2021/09/27 11:29:02;;;;;;;4.00;3.03;;;21.10;75.40;;;;;;5008838;28;20121;-79
2021/09/27 11:31:27;;;;;;;3.63;3.00;;;21.10;75.30;;;;;;5012202;28;20026;-81
2021/09/27 11:33:58;;;;;;;5.70;3.45;;;21.20;75.10;;;;;;5013506;28;20042;-79
2021/09/27 11:36:33;;;;;;;6.38;3.65;;;21.20;75.10;;;;;;5017589;28;20293;-79
2021/09/27 11:39:04;;;;;;;8.55;4.03;;;21.10;74.90;;;;;;5008903;28;20121;-81
2021/09/27 11:41:36;;;;;;;4.03;2.80;;;21.10;74.80;;;;;;5034064;28;20129;-80
2021/09/27 11:44:12;;;;;;;5.57;3.33;;;21.20;74.90;;;;;;5005632;28;20041;-80
2021/09/27 11:46:41;;;;;;;3.78;2.70;;;21.30;74.60;;;;;;5016850;28;20030;-78
2021/09/27 11:49:27;;;;;;;5.35;3.65;;;21.30;74.50;;;;;;5011754;28;20033;-77
2021/09/27 11:52:28;;;;;;;4.10;2.70;;;21.40;74.20;;;;;;5013426;28;20022;-77
2021/09/27 11:55:29;;;;;;;3.92;2.50;;;21.40;74.20;;;;;;5003949;28;20101;-77
2021/09/27 11:58:06;;;;;;;6.20;3.40;;;21.60;74.00;;;;;;5039892;28;20072;-83
2021/09/27 12:00:41;;;;;;;6.38;3.20;;;21.60;73.60;;;;;;5043040;28;20669;-81
2021/09/27 12:03:29;;;;;;;4.72;2.80;;;21.60;73.30;;;;;;5006182;28;20026;-78
2021/09/27 12:06:26;;;;;;;5.00;3.15;;;21.60;72.90;;;;;;5005442;28;20056;-80
2021/09/27 12:09:18;;;;;;;2.72;2.00;;;21.60;72.10;;;;;;5024320;28;20049;-78
2021/09/27 12:11:51;;;;;;;3.05;2.33;;;21.70;72.40;;;;;;5021859;28;20052;-78
2021/09/27 12:14:44;;;;;;;3.00;2.30;;;21.70;71.70;;;;;;5010063;28;20383;-80
2021/09/27 12:17:15;;;;;;;2.85;2.10;;;21.60;71.40;;;;;;5025449;28;20053;-80
2021/09/27 12:19:59;;;;;;;3.63;2.08;;;21.60;70.90;;;;;;5029556;28;20026;-80
2021/09/27 12:22:35;;;;;;;3.00;2.30;;;21.50;71.10;;;;;;5014237;28;20120;-81
2021/09/27 12:25:07;;;;;;;3.50;2.50;;;21.50;70.80;;;;;;5025894;28;20018;-81
2021/09/27 12:27:33;;;;;;;;;;;21.50;70.40;;;;;;5043458;28;20422;-80
2021/09/27 12:30:08;;;;;;;3.53;2.20;;;21.50;70.40;;;;;;5009270;28;19915;-79
2021/09/27 12:32:43;;;;;;;4.95;2.47;;;21.40;70.50;;;;;;5018456;28;20491;-78
2021/09/27 12:35:27;;;;;;;3.60;1.98;;;21.50;70.20;;;;;;5009535;28;20051;-78
2021/09/27 12:37:55;;;;;;;3.17;2.00;;;21.50;70.30;;;;;;5009280;28;20025;-78
2021/09/27 12:40:37;;;;;;;4.72;1.70;;;21.50;70.30;;;;;;5012003;28;20026;-79
2021/09/27 12:43:15;;;;;;;2.50;1.83;;;21.60;70.40;;;;;;5000071;28;20034;-79
2021/09/27 12:45:45;;;;;;;3.30;2.15;;;21.70;70.30;;;;;;5017294;28;20025;-77
2021/09/27 12:48:24;;;;;;;4.40;2.03;;;21.70;69.60;;;;;;5014943;28;20049;-81
2021/09/27 12:50:58;;;;;;;3.72;1.98;;;21.80;69.40;;;;;;5002074;28;20033;-80
2021/09/27 12:53:48;;;;;;;2.20;1.73;;;21.80;69.30;;;;;;5009914;28;20061;-79
2021/09/27 12:56:16;;;;;;;1.65;1.20;;;21.80;69.30;;;;;;5010638;28;20026;-79
2021/09/27 12:58:53;;;;;;;2.17;1.30;;;22.00;69.50;;;;;;5025289;28;20415;-80
2021/09/27 13:01:23;;;;;;;1.92;1.75;;;22.10;70.10;;;;;;5004586;28;20030;-78
2021/09/27 13:04:02;;;;;;;3.50;2.47;;;22.10;69.10;;;;;;5016677;28;20133;-76
2021/09/27 13:06:35;;;;;;;3.85;2.20;;;22.20;68.50;;;;;;5023104;28;20029;-78
2021/09/27 13:09:12;;;;;;;2.47;1.70;;;22.00;68.50;;;;;;5016477;28;20033;-79
2021/09/27 13:11:48;;;;;;;3.50;1.77;;;22.00;69.00;;;;;;5007946;28;20053;-80
2021/09/27 13:14:29;;;;;;;2.28;1.70;;;22.00;68.90;;;;;;5009918;28;20036;-79
2021/09/27 13:17:10;;;;;;;4.10;2.47;;;22.00;69.10;;;;;;5005859;28;20045;-76
2021/09/27 13:19:43;;;;;;;1.95;1.70;;;21.90;68.90;;;;;;5006685;28;20037;-79
2021/09/27 13:22:21;;;;;;;2.53;2.00;;;21.80;69.20;;;;;;5020562;27;20066;-78
2021/09/27 13:25:08;;;;;;;1.95;1.75;;;21.70;69.60;;;;;;5003970;28;20053;-77
2021/09/27 13:27:48;;;;;;;2.80;2.20;;;21.70;70.00;;;;;;5010222;28;20062;-79
2021/09/27 13:30:26;;;;;;;2.85;2.10;;;21.50;70.40;;;;;;5008044;28;20021;-78
2021/09/27 13:33:01;;;;;;;3.65;2.05;;;21.50;71.10;;;;;;5005429;28;20376;-81
2021/09/27 13:35:39;;;;;;;2.40;1.60;;;21.30;71.40;;;;;;5007146;28;20125;-78
2021/09/27 13:38:10;;;;;;;1.67;1.58;;;21.30;72.10;;;;;;5010500;28;20068;-81